KNJK/NJK METAR and TAF weather

Enter ICAO airport designator
Station Type Date Time Source
KNJK METAR 2022/10/01 06:56 UTC NOAA

KNJK 010656Z AUTO 19003KT 10SM CLR 30/08 A2971 RMK AO2 SLP076 T03000078 $


Station Type Date Time Source
KNJK Decoded METAR 2022/10/01 06:56 UTC NOAA

El Centro, Naval Air Facility, CA, United States (KNJK) 32-49-30N 115-39-38W -13M
Oct 01, 2022 - 02:56 AM EDT / 2022.10.01 0656 UTC
Wind: from the S (190 degrees) at 3 MPH (3 KT):0
Visibility: 10 mile(s):0
Sky conditions: clear
Temperature: 86.0 F (30.0 C)
Dew Point: 46.0 F (7.8 C)
Relative Humidity: 24%
Pressure (altimeter): 29.71 in. Hg (1006 hPa)
ob: KNJK 010656Z AUTO 19003KT 10SM CLR 30/08 A2971 RMK AO2 SLP076 T03000078
cycle: 7

Station Type Date Time Source
KNJK TAF 2022/10/01 07:06 UTC NOAA

TAF KNJK 0107/0207 VRB06KT 9999 SKC QNH2962INS AUTOMATED SENSOR METWATCH 0107 TIL 0113 T26/0113Z T38/0123Z FS30171

Example: see airport list